createdAt,value
2018-04-07T00:00:12.708Z,67.80
2018-04-07T00:02:42.222Z,64.53
2018-04-07T00:05:11.802Z,64.70
2018-04-07T00:07:40.607Z,63.13
2018-04-07T00:10:10.217Z,64.30
2018-04-07T00:12:39.967Z,70.63
2018-04-07T00:15:08.799Z,63.07
2018-04-07T00:17:37.613Z,80.53
2018-04-07T00:20:07.200Z,67.00
2018-04-07T00:22:36.056Z,67.50
2018-04-07T00:25:05.097Z,69.10
2018-04-07T00:27:33.865Z,70.53
2018-04-07T00:30:02.588Z,60.43
2018-04-07T00:32:32.066Z,61.07
2018-04-07T00:35:00.970Z,63.93
2018-04-07T00:37:30.600Z,66.73
2018-04-07T00:39:59.696Z,68.60
2018-04-07T00:42:28.704Z,58.77
2018-04-07T00:44:58.566Z,57.97
2018-04-07T00:47:27.497Z,65.23
2018-04-07T00:49:56.511Z,66.10
2018-04-07T00:52:25.341Z,60.90
2018-04-07T00:54:54.234Z,60.97
2018-04-07T00:57:23.063Z,57.23
2018-04-07T00:59:51.956Z,62.33
2018-04-07T01:02:20.903Z,65.70
2018-04-07T01:04:49.733Z,60.50
2018-04-07T01:07:18.780Z,62.40
2018-04-07T01:09:47.513Z,59.60
2018-04-07T01:12:16.375Z,64.67
2018-04-07T01:14:45.939Z,62.93
2018-04-07T01:17:14.669Z,67.37
2018-04-07T01:19:43.458Z,57.67
2018-04-07T01:22:12.939Z,61.57
2018-04-07T01:24:41.795Z,60.97
2018-04-07T01:27:10.518Z,63.80
2018-04-07T01:29:39.328Z,55.47
2018-04-07T01:32:08.074Z,60.30
2018-04-07T01:34:36.899Z,55.20
2018-04-07T01:37:05.790Z,68.70
2018-04-07T01:39:36.467Z,61.03
2018-04-07T01:42:05.203Z,54.33
2018-04-07T01:44:34.028Z,61.37
2018-04-07T01:47:02.984Z,61.93
2018-04-07T01:49:32.140Z,62.10
2018-04-07T01:52:01.098Z,59.27
2018-04-07T01:54:30.682Z,64.53
2018-04-07T01:56:59.418Z,59.37
2018-04-07T01:59:28.256Z,63.20
2018-04-07T02:01:56.960Z,58.20
2018-04-07T02:04:25.826Z,65.23
2018-04-07T02:06:54.578Z,59.33
2018-04-07T02:09:23.304Z,63.30
2018-04-07T02:11:52.096Z,59.83
2018-04-07T02:14:21.797Z,59.00
2018-04-07T02:16:50.598Z,65.00
2018-04-07T02:19:20.096Z,61.70
2018-04-07T02:21:48.916Z,63.95
2018-04-07T02:24:17.899Z,72.73
2018-04-07T02:26:47.515Z,67.10
2018-04-07T02:29:16.251Z,68.17
2018-04-07T02:31:45.504Z,72.43
2018-04-07T02:34:14.233Z,61.13
2018-04-07T02:36:43.052Z,67.83
2018-04-07T02:39:11.810Z,65.40
2018-04-07T02:41:40.677Z,65.00
2018-04-07T02:44:09.359Z,58.40
2018-04-07T02:46:38.161Z,58.83
2018-04-07T02:49:07.087Z,60.00
2018-04-07T02:51:36.694Z,63.53
2018-04-07T02:54:05.492Z,61.77
2018-04-07T02:56:35.302Z,55.63
2018-04-07T02:59:04.117Z,60.23
2018-04-07T03:01:32.835Z,63.67
2018-04-07T03:04:01.733Z,62.30
2018-04-07T03:06:30.905Z,59.13
2018-04-07T03:08:59.727Z,60.93
2018-04-07T03:11:28.765Z,60.17
2018-04-07T03:13:57.490Z,59.13
2018-04-07T03:16:26.181Z,58.33
2018-04-07T03:18:54.918Z,59.50
2018-04-07T03:21:23.676Z,64.87
2018-04-07T03:23:52.644Z,63.37
2018-04-07T03:26:21.350Z,57.33
2018-04-07T03:28:50.320Z,61.73
2018-04-07T03:31:19.028Z,52.40
2018-04-07T03:33:48.827Z,60.73
2018-04-07T03:36:17.542Z,58.57
2018-04-07T03:38:46.593Z,55.57
2018-04-07T03:41:15.371Z,54.33
2018-04-07T03:43:44.877Z,60.07
2018-04-07T03:46:14.566Z,61.43
2018-04-07T03:48:44.579Z,68.50
2018-04-07T03:51:13.383Z,54.20
2018-04-07T03:53:43.068Z,62.30
2018-04-07T03:56:11.927Z,62.97
2018-04-07T03:58:41.178Z,58.10
2018-04-07T04:01:10.774Z,56.20
2018-04-07T04:03:40.506Z,56.73
2018-04-07T04:06:09.526Z,58.43
2018-04-07T04:08:38.534Z,57.27
2018-04-07T04:11:08.335Z,58.43
2018-04-07T04:13:37.210Z,59.07
2018-04-07T04:16:06.988Z,62.53
2018-04-07T04:18:36.082Z,64.57
2018-04-07T04:21:04.861Z,61.00
2018-04-07T04:23:33.708Z,57.77
2018-04-07T04:26:02.494Z,58.43
2018-04-07T04:28:31.330Z,58.70
2018-04-07T04:31:00.125Z,61.50
2018-04-07T04:33:29.695Z,61.67
2018-04-07T04:35:58.642Z,62.90
2018-04-07T04:38:28.210Z,61.77
2018-04-07T04:40:57.084Z,65.90
2018-04-07T04:43:26.254Z,68.43
2018-04-07T04:45:55.056Z,68.93
2018-04-07T04:48:24.018Z,69.70
2018-04-07T04:50:52.849Z,65.50
2018-04-07T04:53:22.558Z,58.03
2018-04-07T04:55:51.322Z,58.43
2018-04-07T04:58:20.137Z,56.87
2018-04-07T05:00:49.014Z,52.73
2018-04-07T05:03:17.781Z,55.80
2018-04-07T05:05:46.539Z,57.27
2018-04-07T05:08:15.520Z,61.30
2018-04-07T05:10:44.246Z,61.63
2018-04-07T05:13:13.128Z,57.17
2018-04-07T05:15:42.346Z,58.10
2018-04-07T05:18:11.137Z,56.60
2018-04-07T05:20:39.947Z,62.90
2018-04-07T05:23:08.999Z,65.43
2018-04-07T05:25:37.778Z,62.87
2018-04-07T05:28:07.667Z,65.73
2018-04-07T05:30:37.200Z,59.20
2018-04-07T05:33:06.729Z,57.83
2018-04-07T05:35:35.557Z,62.43
2018-04-07T05:38:05.225Z,73.27
2018-04-07T05:40:33.991Z,55.40
2018-04-07T05:43:02.836Z,61.13
2018-04-07T05:45:32.632Z,66.57
2018-04-07T05:48:01.419Z,66.30
2018-04-07T05:50:30.295Z,66.70
2018-04-07T05:52:59.444Z,67.03
2018-04-07T05:55:31.243Z,54.17
2018-04-07T05:58:01.528Z,54.47
2018-04-07T06:00:30.511Z,54.03
2018-04-07T06:02:59.345Z,62.83
2018-04-07T06:05:28.904Z,55.03
2018-04-07T06:07:57.762Z,63.50
2018-04-07T06:10:26.590Z,64.70
2018-04-07T06:12:55.320Z,57.07
2018-04-07T06:15:24.390Z,53.63
2018-04-07T06:17:53.253Z,57.87
2018-04-07T06:20:22.122Z,59.33
2018-04-07T06:22:51.065Z,55.07
2018-04-07T06:25:35.576Z,53.73
2018-04-07T06:28:05.813Z,51.60
2018-04-07T06:30:34.608Z,54.00
2018-04-07T06:33:03.484Z,53.77
2018-04-07T06:35:32.523Z,52.57
2018-04-07T06:38:02.196Z,54.70
2018-04-07T06:40:31.331Z,51.30
2018-04-07T06:43:00.924Z,58.60
2018-04-07T06:45:30.510Z,57.37
2018-04-07T06:47:59.341Z,54.40
2018-04-07T06:50:29.135Z,59.80
2018-04-07T06:52:57.935Z,49.60
2018-04-07T06:55:26.739Z,60.23
2018-04-07T06:57:56.549Z,46.47
2018-04-07T07:00:25.775Z,56.13
2018-04-07T07:02:54.839Z,54.30
2018-04-07T07:05:24.620Z,47.77
2018-04-07T07:07:53.701Z,57.13
2018-04-07T07:10:23.324Z,53.03
2018-04-07T07:12:52.116Z,47.27
2018-04-07T07:15:20.993Z,47.43
2018-04-07T07:17:50.545Z,52.17
2018-04-07T07:20:30.103Z,51.47
2018-04-07T07:22:59.062Z,54.53
2018-04-07T07:25:27.951Z,49.40
2018-04-07T07:27:57.573Z,41.53
2018-04-07T07:30:26.640Z,43.67
2018-04-07T07:32:56.192Z,49.67
2018-04-07T07:35:24.970Z,47.90
2018-04-07T07:37:53.830Z,52.83
2018-04-07T07:40:22.904Z,63.27
2018-04-07T07:42:51.779Z,69.10
2018-04-07T07:45:20.799Z,60.73
2018-04-07T07:47:50.708Z,53.43
2018-04-07T07:52:55.723Z,66.90
2018-04-07T07:55:24.590Z,66.10
2018-04-07T07:57:54.119Z,57.30
2018-04-07T08:00:23.001Z,88.67
2018-04-07T08:02:52.662Z,58.93
2018-04-07T08:05:21.913Z,55.83
2018-04-07T08:07:52.065Z,58.70
2018-04-07T08:10:22.259Z,49.13
2018-04-07T08:12:51.075Z,58.03
2018-04-07T08:15:19.832Z,71.57
2018-04-07T08:17:48.531Z,67.40
2018-04-07T08:20:17.438Z,54.97
2018-04-07T08:22:46.185Z,56.03
2018-04-07T08:25:15.174Z,68.97
2018-04-07T08:27:44.020Z,61.47
2018-04-07T08:30:12.854Z,59.20
2018-04-07T08:32:43.807Z,60.17
2018-04-07T08:37:47.518Z,63.43
2018-04-07T08:40:16.310Z,53.23
2018-04-07T08:42:45.341Z,63.47
2018-04-07T08:45:14.247Z,54.13
2018-04-07T08:47:43.839Z,59.30
2018-04-07T08:50:12.641Z,61.33
2018-04-07T08:52:41.421Z,62.67
2018-04-07T08:55:10.515Z,57.20
2018-04-07T08:57:39.514Z,58.77
2018-04-07T09:00:09.128Z,67.50
2018-04-07T09:02:38.698Z,66.30
2018-04-07T09:05:07.503Z,106.23
2018-04-07T09:07:36.246Z,75.90
2018-04-07T09:10:05.999Z,106.83
2018-04-07T09:12:34.831Z,70.07
2018-04-07T09:15:05.128Z,66.20
2018-04-07T09:17:34.309Z,63.47
2018-04-07T09:20:03.278Z,63.73
2018-04-07T09:22:33.253Z,66.97
2018-04-07T09:25:03.073Z,52.40
2018-04-07T09:27:32.282Z,56.70
2018-04-07T09:30:01.973Z,55.00
2018-04-07T09:32:30.809Z,57.70
2018-04-07T09:34:59.628Z,55.97
2018-04-07T09:37:29.313Z,61.13
2018-04-07T09:39:58.871Z,62.10
2018-04-07T09:42:28.609Z,59.37
2018-04-07T09:44:57.367Z,60.73
2018-04-07T09:47:27.118Z,62.37
2018-04-07T09:49:56.072Z,57.60
2018-04-07T09:52:25.655Z,59.00
2018-04-07T09:54:54.463Z,74.00
2018-04-07T09:57:24.254Z,60.10
2018-04-07T09:59:53.438Z,66.57
2018-04-07T10:02:23.459Z,67.87
2018-04-07T10:04:52.215Z,68.30
2018-04-07T10:07:21.246Z,65.20
2018-04-07T10:09:49.971Z,82.63
2018-04-07T10:12:18.783Z,98.90
2018-04-07T10:14:47.972Z,79.40
2018-04-07T10:17:17.009Z,58.67
2018-04-07T10:19:45.736Z,54.73
2018-04-07T10:22:15.466Z,59.50
2018-04-07T10:24:44.498Z,60.97
2018-04-07T10:27:13.241Z,72.97
2018-04-07T10:29:42.247Z,88.07
2018-04-07T10:32:11.742Z,63.73
2018-04-07T10:34:41.305Z,47.37
2018-04-07T10:37:10.912Z,61.70
2018-04-07T10:39:40.447Z,54.10
2018-04-07T10:42:10.376Z,67.13
2018-04-07T10:44:40.337Z,60.27
2018-04-07T10:47:09.150Z,64.13
2018-04-07T10:49:37.991Z,58.37
2018-04-07T10:52:06.820Z,59.07
2018-04-07T10:54:36.601Z,80.00
2018-04-07T10:57:06.618Z,68.03
2018-04-07T10:59:35.859Z,67.67
2018-04-07T11:02:04.778Z,83.60
2018-04-07T11:04:33.612Z,70.13
2018-04-07T11:07:02.404Z,104.60
2018-04-07T11:09:31.133Z,89.83
2018-04-07T11:12:00.878Z,59.50
2018-04-07T11:14:30.856Z,76.53
2018-04-07T11:16:59.678Z,67.50
2018-04-07T11:19:28.464Z,85.37
2018-04-07T11:21:57.462Z,61.80
2018-04-07T11:24:26.240Z,61.87
2018-04-07T11:26:54.940Z,88.57
2018-04-07T11:29:23.763Z,136.27
2018-04-07T11:31:52.486Z,83.53
2018-04-07T11:34:22.185Z,67.00
2018-04-07T11:36:52.182Z,50.37
2018-04-07T11:39:20.946Z,68.00
2018-04-07T11:41:49.718Z,50.73
2018-04-07T11:44:19.340Z,53.07
2018-04-07T11:46:48.379Z,63.90
2018-04-07T11:49:17.954Z,69.70
2018-04-07T11:51:46.699Z,63.83
2018-04-07T11:54:15.561Z,81.33
2018-04-07T11:56:45.172Z,69.33
2018-04-07T11:59:13.988Z,61.57
2018-04-07T12:01:42.811Z,72.50
2018-04-07T12:04:12.371Z,54.87
2018-04-07T12:06:42.384Z,67.13
2018-04-07T12:09:11.164Z,87.43
2018-04-07T12:11:40.149Z,83.80
2018-04-07T12:14:08.980Z,118.13
2018-04-07T12:16:38.083Z,85.03
2018-04-07T12:19:06.854Z,75.63
2018-04-07T12:21:36.578Z,88.53
2018-04-07T12:24:05.390Z,57.37
2018-04-07T12:26:34.989Z,60.40
2018-04-07T12:29:03.758Z,58.60
2018-04-07T12:31:32.566Z,57.63
2018-04-07T12:34:01.665Z,61.50
2018-04-07T12:36:30.658Z,65.00
2018-04-07T12:38:59.430Z,60.70
2018-04-07T12:41:28.264Z,84.37
2018-04-07T12:43:57.810Z,66.47
2018-04-07T12:46:26.598Z,71.30
2018-04-07T12:48:55.418Z,78.57
2018-04-07T12:51:24.190Z,77.93
2018-04-07T12:53:53.824Z,71.37
2018-04-07T12:56:23.435Z,85.17
2018-04-07T12:58:52.217Z,82.27
2018-04-07T13:01:21.124Z,72.60
2018-04-07T13:03:50.707Z,72.47
2018-04-07T13:06:19.641Z,64.63
2018-04-07T13:08:49.392Z,91.50
2018-04-07T13:11:18.097Z,60.13
2018-04-07T13:13:46.941Z,70.23
2018-04-07T13:16:16.246Z,58.97
2018-04-07T13:18:45.134Z,59.07
2018-04-07T13:21:14.026Z,61.47
2018-04-07T13:23:43.625Z,62.17
2018-04-07T13:26:12.409Z,79.00
2018-04-07T13:28:42.211Z,62.00
2018-04-07T13:31:11.746Z,59.47
2018-04-07T13:33:40.851Z,71.77
2018-04-07T13:36:09.892Z,65.97
2018-04-07T13:38:39.606Z,88.97
2018-04-07T13:41:09.183Z,78.73
2018-04-07T13:43:38.249Z,57.47
2018-04-07T13:46:07.066Z,64.30
2018-04-07T13:48:35.891Z,92.83
2018-04-07T13:51:04.769Z,69.87
2018-04-07T13:53:33.587Z,76.53
2018-04-07T13:56:02.358Z,96.83
2018-04-07T13:58:32.041Z,85.10
2018-04-07T14:01:01.720Z,60.23
2018-04-07T14:03:30.542Z,62.73
2018-04-07T14:05:59.253Z,55.47
2018-04-07T14:08:28.035Z,58.10
2018-04-07T14:10:57.586Z,56.57
2018-04-07T14:13:26.483Z,53.20
2018-04-07T14:15:55.374Z,68.63
2018-04-07T14:18:24.130Z,77.37
2018-04-07T14:20:53.836Z,82.93
2018-04-07T14:23:22.634Z,72.07
2018-04-07T14:25:52.343Z,58.03
2018-04-07T14:28:21.473Z,59.70
2018-04-07T14:30:50.468Z,60.17
2018-04-07T14:33:21.197Z,96.10
2018-04-07T14:35:50.906Z,78.97
2018-04-07T14:38:20.895Z,100.47
2018-04-07T14:40:52.902Z,115.03
2018-04-07T14:43:22.102Z,102.23
2018-04-07T14:45:52.187Z,66.07
2018-04-07T14:48:21.875Z,55.07
2018-04-07T14:50:52.583Z,62.43
2018-04-07T14:53:23.919Z,62.03
2018-04-07T14:55:53.094Z,60.17
2018-04-07T14:58:24.611Z,77.87
2018-04-07T15:00:55.200Z,72.50
2018-04-07T15:03:25.916Z,92.97
2018-04-07T15:05:54.783Z,90.80
2018-04-07T15:08:25.551Z,68.87
2018-04-07T15:10:55.518Z,63.40
2018-04-07T15:13:26.534Z,56.03
2018-04-07T15:15:55.908Z,68.67
2018-04-07T15:18:24.888Z,68.90
2018-04-07T15:20:55.489Z,62.33
2018-04-07T15:23:24.816Z,66.60
2018-04-07T15:25:55.600Z,57.07
2018-04-07T15:28:25.520Z,52.60
2018-04-07T15:30:55.349Z,56.33
2018-04-07T15:33:24.123Z,58.67
2018-04-07T15:35:54.233Z,108.53
2018-04-07T15:38:25.173Z,141.50
2018-04-07T15:40:56.532Z,89.23
2018-04-07T15:43:29.290Z,57.20
2018-04-07T15:45:59.596Z,66.73
2018-04-07T15:48:29.537Z,91.33
2018-04-07T15:50:59.413Z,106.80
2018-04-07T15:53:30.006Z,116.00
2018-04-07T15:56:00.919Z,96.17
2018-04-07T15:58:31.533Z,46.00
2018-04-07T16:01:00.844Z,53.43
2018-04-07T16:03:30.850Z,49.97
2018-04-07T16:06:01.767Z,56.77
2018-04-07T16:08:31.396Z,49.03
2018-04-07T16:11:02.296Z,51.90
2018-04-07T16:13:33.013Z,74.47
2018-04-07T16:16:01.791Z,60.43
2018-04-07T16:18:31.465Z,86.03
2018-04-07T16:21:02.385Z,81.80
2018-04-07T16:23:32.734Z,60.63
2018-04-07T16:26:02.377Z,57.13
2018-04-07T16:28:34.238Z,68.63
2018-04-07T16:31:03.188Z,68.17
2018-04-07T16:33:32.962Z,101.83
2018-04-07T16:36:03.154Z,100.60
2018-04-07T16:38:33.086Z,131.67
2018-04-07T16:41:03.044Z,137.57
2018-04-07T16:43:32.047Z,104.50
2018-04-07T16:46:01.515Z,110.97
2018-04-07T16:48:32.124Z,94.40
2018-04-07T16:51:02.535Z,79.50
2018-04-07T16:53:32.372Z,59.20
2018-04-07T16:56:01.187Z,55.80
2018-04-07T16:58:30.055Z,56.03
2018-04-07T17:00:58.774Z,48.43
2018-04-07T17:03:27.877Z,63.40
2018-04-07T17:05:56.822Z,52.20
2018-04-07T17:08:25.738Z,86.40
2018-04-07T17:10:55.399Z,53.40
2018-04-07T17:13:25.045Z,49.97
2018-04-07T17:15:54.403Z,58.67
2018-04-07T17:18:23.333Z,66.87
2018-04-07T17:20:52.528Z,120.33
2018-04-07T17:23:21.502Z,101.77
2018-04-07T17:25:50.716Z,98.43
2018-04-07T17:28:20.016Z,183.30
2018-04-07T17:30:51.028Z,146.47
2018-04-07T17:33:20.197Z,125.87
2018-04-07T17:35:49.263Z,124.03
2018-04-07T17:38:18.284Z,120.03
2018-04-07T17:40:48.143Z,128.33
2018-04-07T17:43:17.127Z,104.73
2018-04-07T17:45:46.109Z,113.57
2018-04-07T17:48:15.228Z,106.73
2018-04-07T17:50:44.381Z,97.83
2018-04-07T17:53:13.459Z,76.63
2018-04-07T17:55:42.362Z,95.90
2018-04-07T17:58:11.434Z,97.73
2018-04-07T18:00:41.280Z,89.70
2018-04-07T18:03:10.940Z,77.50
2018-04-07T18:05:39.804Z,92.13
2018-04-07T18:08:09.554Z,93.53
2018-04-07T18:10:38.789Z,92.13
2018-04-07T18:13:14.482Z,74.43
2018-04-07T18:15:45.401Z,101.07
2018-04-07T18:18:14.884Z,94.10
2018-04-07T18:20:48.550Z,75.83
2018-04-07T18:23:24.307Z,100.67
2018-04-07T18:25:58.132Z,85.87
2018-04-07T18:28:34.360Z,78.53
2018-04-07T18:31:06.460Z,99.10
2018-04-07T18:33:37.235Z,95.03
2018-04-07T18:36:13.049Z,83.57
2018-04-07T18:38:46.429Z,81.57
2018-04-07T18:41:19.335Z,87.47
2018-04-07T18:43:54.091Z,83.70
2018-04-07T18:46:27.543Z,78.37
2018-04-07T18:49:02.441Z,83.53
2018-04-07T18:51:37.476Z,81.27
2018-04-07T18:54:12.267Z,76.23
2018-04-07T18:56:49.154Z,80.57
2018-04-07T18:59:26.951Z,78.17
2018-04-07T19:02:02.275Z,67.90
2018-04-07T19:04:34.081Z,64.10
2018-04-07T19:07:04.167Z,75.93
2018-04-07T19:09:41.700Z,68.50
2018-04-07T19:12:15.983Z,64.83
2018-04-07T19:14:50.973Z,76.60
2018-04-07T19:17:26.432Z,72.93
2018-04-07T19:20:01.093Z,78.70
2018-04-07T19:22:35.814Z,74.30
2018-04-07T19:25:11.177Z,74.70
2018-04-07T19:27:44.049Z,96.50
2018-04-07T19:30:20.129Z,101.80
2018-04-07T19:32:52.653Z,115.70
2018-04-07T19:35:22.680Z,102.70
2018-04-07T19:37:58.942Z,93.10
2018-04-07T19:40:33.970Z,82.77
2018-04-07T19:43:08.699Z,83.93
2018-04-07T19:45:40.551Z,78.47
2018-04-07T19:48:10.493Z,89.80
2018-04-07T19:50:40.701Z,96.40
2018-04-07T19:53:10.605Z,101.77
2018-04-07T19:55:40.176Z,135.87
2018-04-07T19:58:10.507Z,100.83
2018-04-07T20:00:40.105Z,97.37
2018-04-07T20:03:09.672Z,113.13
2018-04-07T20:05:39.124Z,106.77
2018-04-07T20:08:09.666Z,94.47
2018-04-07T20:10:40.116Z,95.90
2018-04-07T20:13:09.741Z,83.47
2018-04-07T20:15:39.514Z,81.30
2018-04-07T20:18:09.943Z,143.43
2018-04-07T20:20:39.673Z,137.57
2018-04-07T20:23:09.276Z,106.60
2018-04-07T20:25:39.275Z,117.23
2018-04-07T20:28:09.657Z,119.13
2018-04-07T20:30:40.385Z,96.07
2018-04-07T20:33:10.029Z,80.50
2018-04-07T20:35:39.560Z,85.33
2018-04-07T20:38:09.315Z,100.77
2018-04-07T20:40:38.851Z,99.63
2018-04-07T20:43:15.411Z,104.03
2018-04-07T20:45:46.264Z,89.07
2018-04-07T20:48:16.944Z,78.67
2018-04-07T20:50:46.733Z,75.90
2018-04-07T20:53:17.576Z,79.67
2018-04-07T20:55:47.642Z,74.27
2018-04-07T20:58:18.231Z,77.17
2018-04-07T21:00:48.069Z,75.63
2018-04-07T21:03:17.705Z,79.33
2018-04-07T21:05:48.214Z,78.70
2018-04-07T21:08:18.108Z,71.47
2018-04-07T21:10:47.839Z,83.27
2018-04-07T21:13:17.446Z,76.90
2018-04-07T21:15:46.905Z,80.70
2018-04-07T21:18:16.876Z,71.63
2018-04-07T21:20:46.032Z,71.77
2018-04-07T21:23:15.520Z,78.37
2018-04-07T21:25:44.812Z,72.70
2018-04-07T21:28:14.034Z,71.43
2018-04-07T21:30:43.155Z,73.40
2018-04-07T21:33:12.064Z,78.93
2018-04-07T21:35:41.723Z,68.70
2018-04-07T21:38:11.022Z,67.07
2018-04-07T21:40:39.849Z,75.17
2018-04-07T21:43:08.607Z,76.40
2018-04-07T21:45:37.406Z,85.90
2018-04-07T21:48:06.191Z,95.80
2018-04-07T21:50:36.061Z,87.57
2018-04-07T21:53:04.892Z,89.17
2018-04-07T21:55:33.869Z,98.63
2018-04-07T21:58:02.772Z,87.63
2018-04-07T22:00:32.363Z,84.73
2018-04-07T22:03:01.184Z,73.23
2018-04-07T22:05:30.049Z,81.43
2018-04-07T22:07:58.883Z,78.60
2018-04-07T22:10:27.751Z,83.17
2018-04-07T22:12:56.972Z,80.87
2018-04-07T22:15:26.175Z,85.53
2018-04-07T22:17:54.990Z,94.23
2018-04-07T22:20:24.699Z,88.43
2018-04-07T22:22:53.443Z,86.50
2018-04-07T22:25:23.061Z,75.30
2018-04-07T22:27:51.929Z,79.83
2018-04-07T22:30:21.084Z,85.40
2018-04-07T22:32:49.952Z,68.70
2018-04-07T22:35:18.879Z,75.60
2018-04-07T22:37:47.723Z,68.70
2018-04-07T22:40:17.100Z,79.70
2018-04-07T22:42:45.912Z,76.43
2018-04-07T22:45:14.778Z,73.53
2018-04-07T22:47:43.617Z,72.03
2018-04-07T22:50:12.371Z,68.37
2018-04-07T22:52:41.130Z,68.83
2018-04-07T22:55:09.922Z,83.10
2018-04-07T22:57:38.671Z,76.13
2018-04-07T23:00:07.573Z,72.73
2018-04-07T23:02:36.888Z,76.70
2018-04-07T23:05:05.798Z,77.80
2018-04-07T23:07:35.250Z,71.03
2018-04-07T23:10:04.048Z,72.57
2018-04-07T23:12:32.891Z,77.47
2018-04-07T23:15:02.880Z,70.87
2018-04-07T23:17:31.685Z,70.93
2018-04-07T23:20:02.235Z,72.67
2018-04-07T23:22:31.807Z,78.33
2018-04-07T23:25:00.706Z,78.33
2018-04-07T23:27:30.489Z,75.17
2018-04-07T23:29:59.343Z,73.23
2018-04-07T23:32:28.187Z,82.50
2018-04-07T23:34:57.023Z,72.90
2018-04-07T23:37:25.822Z,74.20
2018-04-07T23:39:54.869Z,79.20
2018-04-07T23:42:24.479Z,79.43
2018-04-07T23:44:53.306Z,84.80
2018-04-07T23:47:22.076Z,77.70
2018-04-07T23:49:50.955Z,82.37
2018-04-07T23:52:20.598Z,76.27
2018-04-07T23:54:49.364Z,85.97
2018-04-07T23:57:18.928Z,82.03
2018-04-07T23:59:48.505Z,75.13
